sensor_id;sensor_type;location;lat;lon;timestamp;P1;durP1;ratioP1;P2;durP2;ratioP2
7316;SDS011;3699;51.462;6.696;2022-09-21T00:01:44;12.80;;;7.90;;
7316;SDS011;3699;51.462;6.696;2022-09-21T00:04:11;10.70;;;8.37;;
7316;SDS011;3699;51.462;6.696;2022-09-21T00:06:39;14.57;;;7.30;;
7316;SDS011;3699;51.462;6.696;2022-09-21T00:09:05;12.60;;;7.20;;
7316;SDS011;3699;51.462;6.696;2022-09-21T00:11:33;9.47;;;6.73;;
7316;SDS011;3699;51.462;6.696;2022-09-21T00:14:02;9.73;;;7.03;;
7316;SDS011;3699;51.462;6.696;2022-09-21T00:16:31;11.53;;;6.73;;
7316;SDS011;3699;51.462;6.696;2022-09-21T00:18:58;13.90;;;8.07;;
7316;SDS011;3699;51.462;6.696;2022-09-21T00:21:25;12.63;;;7.90;;
7316;SDS011;3699;51.462;6.696;2022-09-21T00:23:53;13.43;;;7.60;;
7316;SDS011;3699;51.462;6.696;2022-09-21T00:26:21;9.63;;;7.23;;
7316;SDS011;3699;51.462;6.696;2022-09-21T00:28:50;10.93;;;7.30;;
7316;SDS011;3699;51.462;6.696;2022-09-21T00:31:19;13.87;;;7.77;;
7316;SDS011;3699;51.462;6.696;2022-09-21T00:33:47;11.13;;;6.80;;
7316;SDS011;3699;51.462;6.696;2022-09-21T00:36:15;15.63;;;7.90;;
7316;SDS011;3699;51.462;6.696;2022-09-21T00:38:43;10.17;;;7.00;;
7316;SDS011;3699;51.462;6.696;2022-09-21T00:41:12;12.00;;;7.03;;
7316;SDS011;3699;51.462;6.696;2022-09-21T00:43:41;12.47;;;7.33;;
7316;SDS011;3699;51.462;6.696;2022-09-21T00:46:11;10.73;;;6.93;;
7316;SDS011;3699;51.462;6.696;2022-09-21T00:48:41;9.93;;;7.20;;
7316;SDS011;3699;51.462;6.696;2022-09-21T00:51:10;13.13;;;7.10;;
7316;SDS011;3699;51.462;6.696;2022-09-21T00:53:38;9.00;;;7.03;;
7316;SDS011;3699;51.462;6.696;2022-09-21T00:56:05;7.80;;;6.83;;
7316;SDS011;3699;51.462;6.696;2022-09-21T00:58:36;9.13;;;6.83;;
7316;SDS011;3699;51.462;6.696;2022-09-21T01:01:08;8.17;;;6.30;;
7316;SDS011;3699;51.462;6.696;2022-09-21T01:03:35;9.90;;;6.73;;
7316;SDS011;3699;51.462;6.696;2022-09-21T01:06:03;7.40;;;5.77;;
7316;SDS011;3699;51.462;6.696;2022-09-21T01:08:30;9.60;;;6.53;;
7316;SDS011;3699;51.462;6.696;2022-09-21T01:11:09;7.73;;;6.47;;
7316;SDS011;3699;51.462;6.696;2022-09-21T01:13:53;7.13;;;6.43;;
7316;SDS011;3699;51.462;6.696;2022-09-21T01:16:36;10.90;;;7.33;;
7316;SDS011;3699;51.462;6.696;2022-09-21T01:19:13;11.13;;;6.17;;
7316;SDS011;3699;51.462;6.696;2022-09-21T01:21:57;10.03;;;6.50;;
7316;SDS011;3699;51.462;6.696;2022-09-21T01:24:34;7.67;;;6.03;;
7316;SDS011;3699;51.462;6.696;2022-09-21T01:27:30;6.87;;;5.77;;
7316;SDS011;3699;51.462;6.696;2022-09-21T01:30:10;7.93;;;6.50;;
7316;SDS011;3699;51.462;6.696;2022-09-21T01:32:40;10.17;;;6.53;;
7316;SDS011;3699;51.462;6.696;2022-09-21T01:35:11;9.57;;;6.73;;
7316;SDS011;3699;51.462;6.696;2022-09-21T01:37:42;12.00;;;6.77;;
7316;SDS011;3699;51.462;6.696;2022-09-21T01:40:13;9.60;;;7.30;;
7316;SDS011;3699;51.462;6.696;2022-09-21T01:42:44;11.73;;;6.90;;
7316;SDS011;3699;51.462;6.696;2022-09-21T01:45:15;8.93;;;6.67;;
7316;SDS011;3699;51.462;6.696;2022-09-21T01:47:46;10.83;;;6.27;;
7316;SDS011;3699;51.462;6.696;2022-09-21T01:50:15;9.20;;;6.20;;
7316;SDS011;3699;51.462;6.696;2022-09-21T01:52:45;9.33;;;6.50;;
7316;SDS011;3699;51.462;6.696;2022-09-21T01:55:16;9.23;;;6.23;;
7316;SDS011;3699;51.462;6.696;2022-09-21T01:57:48;9.37;;;6.23;;
7316;SDS011;3699;51.462;6.696;2022-09-21T02:00:21;8.80;;;6.43;;
7316;SDS011;3699;51.462;6.696;2022-09-21T02:02:50;7.07;;;6.20;;
7316;SDS011;3699;51.462;6.696;2022-09-21T02:05:22;9.43;;;6.63;;
7316;SDS011;3699;51.462;6.696;2022-09-21T02:07:51;8.37;;;6.57;;
7316;SDS011;3699;51.462;6.696;2022-09-21T02:10:20;7.97;;;6.30;;
7316;SDS011;3699;51.462;6.696;2022-09-21T02:12:52;8.17;;;6.17;;
7316;SDS011;3699;51.462;6.696;2022-09-21T02:15:28;8.77;;;6.90;;
7316;SDS011;3699;51.462;6.696;2022-09-21T02:18:03;6.47;;;5.73;;
7316;SDS011;3699;51.462;6.696;2022-09-21T02:20:34;10.50;;;6.23;;
7316;SDS011;3699;51.462;6.696;2022-09-21T02:23:05;7.63;;;5.90;;
7316;SDS011;3699;51.462;6.696;2022-09-21T02:25:38;9.37;;;6.30;;
7316;SDS011;3699;51.462;6.696;2022-09-21T02:28:14;10.83;;;6.30;;
7316;SDS011;3699;51.462;6.696;2022-09-21T02:30:54;7.00;;;6.20;;
7316;SDS011;3699;51.462;6.696;2022-09-21T02:33:27;7.53;;;6.27;;
7316;SDS011;3699;51.462;6.696;2022-09-21T02:35:57;8.60;;;6.00;;
7316;SDS011;3699;51.462;6.696;2022-09-21T02:38:32;8.73;;;6.70;;
7316;SDS011;3699;51.462;6.696;2022-09-21T02:41:03;8.20;;;6.67;;
7316;SDS011;3699;51.462;6.696;2022-09-21T02:43:35;12.53;;;7.20;;
7316;SDS011;3699;51.462;6.696;2022-09-21T02:46:07;9.67;;;6.33;;
7316;SDS011;3699;51.462;6.696;2022-09-21T02:48:39;8.03;;;6.07;;
7316;SDS011;3699;51.462;6.696;2022-09-21T02:51:12;8.30;;;6.17;;
7316;SDS011;3699;51.462;6.696;2022-09-21T02:53:41;8.80;;;6.10;;
7316;SDS011;3699;51.462;6.696;2022-09-21T02:56:11;8.03;;;6.37;;
7316;SDS011;3699;51.462;6.696;2022-09-21T02:58:40;9.43;;;6.80;;
7316;SDS011;3699;51.462;6.696;2022-09-21T03:01:12;14.23;;;7.30;;
7316;SDS011;3699;51.462;6.696;2022-09-21T03:03:40;11.77;;;6.63;;
7316;SDS011;3699;51.462;6.696;2022-09-21T03:06:08;7.87;;;6.70;;
7316;SDS011;3699;51.462;6.696;2022-09-21T03:08:35;9.17;;;6.50;;
7316;SDS011;3699;51.462;6.696;2022-09-21T03:11:02;9.20;;;7.43;;
7316;SDS011;3699;51.462;6.696;2022-09-21T03:13:29;9.60;;;6.77;;
7316;SDS011;3699;51.462;6.696;2022-09-21T03:15:59;10.27;;;6.90;;
7316;SDS011;3699;51.462;6.696;2022-09-21T03:18:29;11.40;;;7.20;;
7316;SDS011;3699;51.462;6.696;2022-09-21T03:20:56;9.13;;;7.67;;
7316;SDS011;3699;51.462;6.696;2022-09-21T03:23:23;14.40;;;7.43;;
7316;SDS011;3699;51.462;6.696;2022-09-21T03:25:50;8.50;;;7.07;;
7316;SDS011;3699;51.462;6.696;2022-09-21T03:28:18;10.33;;;7.43;;
7316;SDS011;3699;51.462;6.696;2022-09-21T03:30:46;12.60;;;8.17;;
7316;SDS011;3699;51.462;6.696;2022-09-21T03:33:14;11.60;;;7.93;;
7316;SDS011;3699;51.462;6.696;2022-09-21T03:35:42;9.60;;;7.33;;
7316;SDS011;3699;51.462;6.696;2022-09-21T03:38:09;8.70;;;7.00;;
7316;SDS011;3699;51.462;6.696;2022-09-21T03:40:36;11.30;;;7.50;;
7316;SDS011;3699;51.462;6.696;2022-09-21T03:43:03;10.23;;;7.30;;
7316;SDS011;3699;51.462;6.696;2022-09-21T03:45:30;13.50;;;7.57;;
7316;SDS011;3699;51.462;6.696;2022-09-21T03:47:57;10.40;;;7.67;;
7316;SDS011;3699;51.462;6.696;2022-09-21T03:50:27;11.97;;;8.20;;
7316;SDS011;3699;51.462;6.696;2022-09-21T03:52:55;11.70;;;7.53;;
7316;SDS011;3699;51.462;6.696;2022-09-21T03:55:24;10.60;;;7.27;;
7316;SDS011;3699;51.462;6.696;2022-09-21T03:57:51;11.23;;;7.37;;
7316;SDS011;3699;51.462;6.696;2022-09-21T04:00:18;13.47;;;8.17;;
7316;SDS011;3699;51.462;6.696;2022-09-21T04:02:45;11.23;;;8.50;;
7316;SDS011;3699;51.462;6.696;2022-09-21T04:05:13;12.37;;;7.10;;
7316;SDS011;3699;51.462;6.696;2022-09-21T04:07:40;7.63;;;6.47;;
7316;SDS011;3699;51.462;6.696;2022-09-21T04:10:11;8.83;;;7.10;;
7316;SDS011;3699;51.462;6.696;2022-09-21T04:12:39;8.47;;;6.73;;
7316;SDS011;3699;51.462;6.696;2022-09-21T04:15:09;11.97;;;7.57;;
7316;SDS011;3699;51.462;6.696;2022-09-21T04:17:36;14.23;;;8.03;;
7316;SDS011;3699;51.462;6.696;2022-09-21T04:20:03;12.80;;;8.30;;
7316;SDS011;3699;51.462;6.696;2022-09-21T04:22:32;9.07;;;7.17;;
7316;SDS011;3699;51.462;6.696;2022-09-21T04:24:59;9.37;;;7.10;;
7316;SDS011;3699;51.462;6.696;2022-09-21T04:27:27;9.63;;;6.83;;
7316;SDS011;3699;51.462;6.696;2022-09-21T04:29:54;8.87;;;7.40;;
7316;SDS011;3699;51.462;6.696;2022-09-21T04:32:21;10.47;;;7.10;;
7316;SDS011;3699;51.462;6.696;2022-09-21T04:34:48;8.73;;;7.37;;
7316;SDS011;3699;51.462;6.696;2022-09-21T04:37:14;10.53;;;7.03;;
7316;SDS011;3699;51.462;6.696;2022-09-21T04:39:41;9.20;;;7.17;;
7316;SDS011;3699;51.462;6.696;2022-09-21T04:42:08;17.53;;;8.10;;
7316;SDS011;3699;51.462;6.696;2022-09-21T04:44:36;9.40;;;7.50;;
7316;SDS011;3699;51.462;6.696;2022-09-21T04:47:03;10.97;;;7.20;;
7316;SDS011;3699;51.462;6.696;2022-09-21T04:49:30;11.40;;;7.13;;
7316;SDS011;3699;51.462;6.696;2022-09-21T04:51:57;10.47;;;6.67;;
7316;SDS011;3699;51.462;6.696;2022-09-21T04:54:24;14.87;;;7.23;;
7316;SDS011;3699;51.462;6.696;2022-09-21T04:56:50;13.10;;;6.97;;
7316;SDS011;3699;51.462;6.696;2022-09-21T04:59:17;11.67;;;7.50;;
7316;SDS011;3699;51.462;6.696;2022-09-21T05:01:45;14.40;;;8.27;;
7316;SDS011;3699;51.462;6.696;2022-09-21T05:04:12;11.03;;;6.83;;
7316;SDS011;3699;51.462;6.696;2022-09-21T05:06:39;11.20;;;7.20;;
7316;SDS011;3699;51.462;6.696;2022-09-21T05:09:06;12.40;;;7.40;;
7316;SDS011;3699;51.462;6.696;2022-09-21T05:11:51;11.10;;;6.60;;
7316;SDS011;3699;51.462;6.696;2022-09-21T05:14:18;11.20;;;8.43;;
7316;SDS011;3699;51.462;6.696;2022-09-21T05:16:46;10.87;;;6.80;;
7316;SDS011;3699;51.462;6.696;2022-09-21T05:19:13;9.90;;;7.43;;
7316;SDS011;3699;51.462;6.696;2022-09-21T05:21:40;11.73;;;8.00;;
7316;SDS011;3699;51.462;6.696;2022-09-21T05:24:07;12.30;;;7.63;;
7316;SDS011;3699;51.462;6.696;2022-09-21T05:26:34;12.60;;;8.60;;
7316;SDS011;3699;51.462;6.696;2022-09-21T05:29:01;16.83;;;8.80;;
7316;SDS011;3699;51.462;6.696;2022-09-21T05:31:37;11.20;;;8.27;;
7316;SDS011;3699;51.462;6.696;2022-09-21T05:34:13;14.87;;;8.33;;
7316;SDS011;3699;51.462;6.696;2022-09-21T05:36:54;15.37;;;8.20;;
7316;SDS011;3699;51.462;6.696;2022-09-21T05:39:26;12.87;;;8.00;;
7316;SDS011;3699;51.462;6.696;2022-09-21T05:41:53;11.23;;;8.33;;
7316;SDS011;3699;51.462;6.696;2022-09-21T05:44:20;11.90;;;7.70;;
7316;SDS011;3699;51.462;6.696;2022-09-21T05:46:48;14.67;;;8.67;;
7316;SDS011;3699;51.462;6.696;2022-09-21T05:49:25;12.40;;;8.20;;
7316;SDS011;3699;51.462;6.696;2022-09-21T05:52:02;13.90;;;8.10;;
7316;SDS011;3699;51.462;6.696;2022-09-21T05:54:37;12.13;;;7.60;;
7316;SDS011;3699;51.462;6.696;2022-09-21T05:57:16;12.97;;;7.90;;
7316;SDS011;3699;51.462;6.696;2022-09-21T05:59:53;13.47;;;7.80;;
7316;SDS011;3699;51.462;6.696;2022-09-21T06:02:30;9.63;;;7.57;;
7316;SDS011;3699;51.462;6.696;2022-09-21T06:05:11;13.80;;;7.60;;
7316;SDS011;3699;51.462;6.696;2022-09-21T06:07:40;11.60;;;7.53;;
7316;SDS011;3699;51.462;6.696;2022-09-21T06:10:07;9.67;;;8.27;;
7316;SDS011;3699;51.462;6.696;2022-09-21T06:12:34;15.60;;;7.90;;
7316;SDS011;3699;51.462;6.696;2022-09-21T06:15:01;11.97;;;7.60;;
7316;SDS011;3699;51.462;6.696;2022-09-21T06:17:29;10.10;;;7.47;;
7316;SDS011;3699;51.462;6.696;2022-09-21T06:19:55;8.90;;;6.63;;
7316;SDS011;3699;51.462;6.696;2022-09-21T06:22:23;11.47;;;6.80;;
7316;SDS011;3699;51.462;6.696;2022-09-21T06:24:50;14.17;;;6.87;;
7316;SDS011;3699;51.462;6.696;2022-09-21T06:27:17;10.57;;;7.00;;
7316;SDS011;3699;51.462;6.696;2022-09-21T06:29:44;16.03;;;7.47;;
7316;SDS011;3699;51.462;6.696;2022-09-21T06:32:11;8.87;;;6.47;;
7316;SDS011;3699;51.462;6.696;2022-09-21T06:34:37;9.53;;;7.13;;
7316;SDS011;3699;51.462;6.696;2022-09-21T06:37:04;14.53;;;7.90;;
7316;SDS011;3699;51.462;6.696;2022-09-21T06:39:32;14.70;;;7.73;;
7316;SDS011;3699;51.462;6.696;2022-09-21T06:41:59;13.20;;;7.50;;
7316;SDS011;3699;51.462;6.696;2022-09-21T06:44:26;10.67;;;7.97;;
7316;SDS011;3699;51.462;6.696;2022-09-21T06:46:53;13.80;;;8.17;;
7316;SDS011;3699;51.462;6.696;2022-09-21T06:49:20;14.33;;;9.03;;
7316;SDS011;3699;51.462;6.696;2022-09-21T06:51:47;12.70;;;7.93;;
7316;SDS011;3699;51.462;6.696;2022-09-21T06:54:14;16.37;;;9.73;;
7316;SDS011;3699;51.462;6.696;2022-09-21T06:56:42;15.20;;;9.13;;
7316;SDS011;3699;51.462;6.696;2022-09-21T06:59:09;12.70;;;9.40;;
7316;SDS011;3699;51.462;6.696;2022-09-21T07:01:36;15.90;;;9.13;;
7316;SDS011;3699;51.462;6.696;2022-09-21T07:04:03;17.20;;;9.30;;
7316;SDS011;3699;51.462;6.696;2022-09-21T07:06:31;12.67;;;9.00;;
7316;SDS011;3699;51.462;6.696;2022-09-21T07:08:57;14.50;;;7.83;;
7316;SDS011;3699;51.462;6.696;2022-09-21T07:11:25;16.67;;;9.53;;
7316;SDS011;3699;51.462;6.696;2022-09-21T07:13:53;18.77;;;8.57;;
7316;SDS011;3699;51.462;6.696;2022-09-21T07:16:20;13.37;;;8.13;;
7316;SDS011;3699;51.462;6.696;2022-09-21T07:18:47;13.17;;;8.57;;
7316;SDS011;3699;51.462;6.696;2022-09-21T07:21:14;14.50;;;8.33;;
7316;SDS011;3699;51.462;6.696;2022-09-21T07:23:41;16.90;;;10.03;;
7316;SDS011;3699;51.462;6.696;2022-09-21T07:26:09;14.27;;;9.13;;
7316;SDS011;3699;51.462;6.696;2022-09-21T07:28:36;15.17;;;8.40;;
7316;SDS011;3699;51.462;6.696;2022-09-21T07:31:08;15.30;;;9.07;;
7316;SDS011;3699;51.462;6.696;2022-09-21T07:33:37;15.03;;;8.87;;
7316;SDS011;3699;51.462;6.696;2022-09-21T07:36:05;18.13;;;9.53;;
7316;SDS011;3699;51.462;6.696;2022-09-21T07:38:35;15.37;;;8.63;;
7316;SDS011;3699;51.462;6.696;2022-09-21T07:41:03;10.70;;;7.93;;
7316;SDS011;3699;51.462;6.696;2022-09-21T07:43:32;15.40;;;9.10;;
7316;SDS011;3699;51.462;6.696;2022-09-21T07:45:59;12.53;;;8.13;;
7316;SDS011;3699;51.462;6.696;2022-09-21T07:48:27;13.90;;;8.20;;
7316;SDS011;3699;51.462;6.696;2022-09-21T07:50:59;17.07;;;9.07;;
7316;SDS011;3699;51.462;6.696;2022-09-21T07:53:28;12.70;;;7.40;;
7316;SDS011;3699;51.462;6.696;2022-09-21T07:55:59;15.50;;;7.33;;
7316;SDS011;3699;51.462;6.696;2022-09-21T07:58:26;11.70;;;7.40;;
7316;SDS011;3699;51.462;6.696;2022-09-21T08:01:10;18.03;;;8.83;;
7316;SDS011;3699;51.462;6.696;2022-09-21T08:03:38;18.83;;;9.13;;
7316;SDS011;3699;51.462;6.696;2022-09-21T08:06:05;16.87;;;7.97;;
7316;SDS011;3699;51.462;6.696;2022-09-21T08:08:33;21.23;;;9.57;;
7316;SDS011;3699;51.462;6.696;2022-09-21T08:11:01;14.00;;;7.43;;
7316;SDS011;3699;51.462;6.696;2022-09-21T08:13:28;16.57;;;8.37;;
7316;SDS011;3699;51.462;6.696;2022-09-21T08:15:57;14.80;;;8.20;;
7316;SDS011;3699;51.462;6.696;2022-09-21T08:18:24;20.57;;;8.30;;
7316;SDS011;3699;51.462;6.696;2022-09-21T08:20:55;16.80;;;8.33;;
7316;SDS011;3699;51.462;6.696;2022-09-21T08:23:23;17.90;;;7.77;;
7316;SDS011;3699;51.462;6.696;2022-09-21T08:25:56;17.03;;;8.03;;
7316;SDS011;3699;51.462;6.696;2022-09-21T08:28:24;16.73;;;8.50;;
7316;SDS011;3699;51.462;6.696;2022-09-21T08:30:51;16.27;;;7.40;;
7316;SDS011;3699;51.462;6.696;2022-09-21T08:33:17;14.87;;;8.00;;
7316;SDS011;3699;51.462;6.696;2022-09-21T08:35:50;12.30;;;7.17;;
7316;SDS011;3699;51.462;6.696;2022-09-21T08:38:19;12.53;;;6.90;;
7316;SDS011;3699;51.462;6.696;2022-09-21T08:40:46;9.70;;;6.43;;
7316;SDS011;3699;51.462;6.696;2022-09-21T08:43:14;11.37;;;5.57;;
7316;SDS011;3699;51.462;6.696;2022-09-21T08:45:44;19.77;;;7.10;;
7316;SDS011;3699;51.462;6.696;2022-09-21T08:48:13;22.53;;;7.20;;
7316;SDS011;3699;51.462;6.696;2022-09-21T08:50:45;12.10;;;6.30;;
7316;SDS011;3699;51.462;6.696;2022-09-21T08:53:14;12.93;;;6.70;;
7316;SDS011;3699;51.462;6.696;2022-09-21T08:55:46;17.27;;;6.60;;
7316;SDS011;3699;51.462;6.696;2022-09-21T08:58:18;9.37;;;6.80;;
7316;SDS011;3699;51.462;6.696;2022-09-21T09:00:48;12.57;;;7.17;;
7316;SDS011;3699;51.462;6.696;2022-09-21T09:03:25;14.37;;;7.67;;
7316;SDS011;3699;51.462;6.696;2022-09-21T09:06:03;12.03;;;7.70;;
7316;SDS011;3699;51.462;6.696;2022-09-21T09:08:39;14.10;;;7.57;;
7316;SDS011;3699;51.462;6.696;2022-09-21T09:11:21;14.67;;;7.10;;
7316;SDS011;3699;51.462;6.696;2022-09-21T09:14:00;16.37;;;7.47;;
7316;SDS011;3699;51.462;6.696;2022-09-21T09:16:42;11.03;;;5.70;;
7316;SDS011;3699;51.462;6.696;2022-09-21T09:19:19;14.83;;;6.87;;
7316;SDS011;3699;51.462;6.696;2022-09-21T09:21:53;13.13;;;5.80;;
7316;SDS011;3699;51.462;6.696;2022-09-21T09:24:27;16.03;;;6.03;;
7316;SDS011;3699;51.462;6.696;2022-09-21T09:26:58;16.37;;;5.50;;
7316;SDS011;3699;51.462;6.696;2022-09-21T09:29:30;15.93;;;5.73;;
7316;SDS011;3699;51.462;6.696;2022-09-21T09:31:59;10.43;;;5.37;;
7316;SDS011;3699;51.462;6.696;2022-09-21T09:34:28;11.23;;;4.07;;
7316;SDS011;3699;51.462;6.696;2022-09-21T09:36:58;8.53;;;4.30;;
7316;SDS011;3699;51.462;6.696;2022-09-21T09:39:31;8.83;;;3.77;;
7316;SDS011;3699;51.462;6.696;2022-09-21T09:42:05;6.30;;;3.27;;
7316;SDS011;3699;51.462;6.696;2022-09-21T09:47:52;13.13;;;3.53;;
7316;SDS011;3699;51.462;6.696;2022-09-21T09:50:31;11.70;;;4.63;;
7316;SDS011;3699;51.462;6.696;2022-09-21T09:53:01;8.50;;;3.83;;
7316;SDS011;3699;51.462;6.696;2022-09-21T09:55:36;8.63;;;2.90;;
7316;SDS011;3699;51.462;6.696;2022-09-21T09:58:05;5.20;;;1.90;;
7316;SDS011;3699;51.462;6.696;2022-09-21T10:00:41;2.97;;;1.70;;
7316;SDS011;3699;51.462;6.696;2022-09-21T10:03:14;9.10;;;2.40;;
7316;SDS011;3699;51.462;6.696;2022-09-21T10:05:42;10.70;;;2.27;;
7316;SDS011;3699;51.462;6.696;2022-09-21T10:10:56;6.47;;;2.53;;
7316;SDS011;3699;51.462;6.696;2022-09-21T10:13:24;9.13;;;2.17;;
7316;SDS011;3699;51.462;6.696;2022-09-21T10:15:55;9.53;;;4.07;;
7316;SDS011;3699;51.462;6.696;2022-09-21T10:18:25;9.80;;;2.93;;
7316;SDS011;3699;51.462;6.696;2022-09-21T10:20:55;12.43;;;3.60;;
7316;SDS011;3699;51.462;6.696;2022-09-21T10:23:25;5.70;;;2.60;;
7316;SDS011;3699;51.462;6.696;2022-09-21T10:25:59;5.37;;;3.13;;
7316;SDS011;3699;51.462;6.696;2022-09-21T10:28:28;10.00;;;2.80;;
7316;SDS011;3699;51.462;6.696;2022-09-21T10:33:47;7.90;;;2.47;;
7316;SDS011;3699;51.462;6.696;2022-09-21T10:36:24;7.17;;;2.73;;
7316;SDS011;3699;51.462;6.696;2022-09-21T10:38:52;8.37;;;2.90;;
7316;SDS011;3699;51.462;6.696;2022-09-21T10:41:20;3.50;;;2.47;;
7316;SDS011;3699;51.462;6.696;2022-09-21T10:43:48;5.57;;;2.20;;
7316;SDS011;3699;51.462;6.696;2022-09-21T10:46:15;6.03;;;2.27;;
7316;SDS011;3699;51.462;6.696;2022-09-21T10:48:56;14.97;;;6.73;;
7316;SDS011;3699;51.462;6.696;2022-09-21T10:51:25;17.07;;;6.27;;
7316;SDS011;3699;51.462;6.696;2022-09-21T10:53:54;5.20;;;3.07;;
7316;SDS011;3699;51.462;6.696;2022-09-21T10:56:22;3.50;;;2.47;;
7316;SDS011;3699;51.462;6.696;2022-09-21T10:59:09;7.77;;;2.53;;
7316;SDS011;3699;51.462;6.696;2022-09-21T11:01:41;4.23;;;2.30;;
7316;SDS011;3699;51.462;6.696;2022-09-21T11:04:10;10.57;;;2.53;;
7316;SDS011;3699;51.462;6.696;2022-09-21T11:06:42;3.33;;;2.40;;
7316;SDS011;3699;51.462;6.696;2022-09-21T11:09:12;4.87;;;2.33;;
7316;SDS011;3699;51.462;6.696;2022-09-21T11:11:48;4.30;;;2.50;;
7316;SDS011;3699;51.462;6.696;2022-09-21T11:14:20;5.80;;;2.43;;
7316;SDS011;3699;51.462;6.696;2022-09-21T11:17:00;8.63;;;2.77;;
7316;SDS011;3699;51.462;6.696;2022-09-21T11:19:34;5.47;;;2.27;;
7316;SDS011;3699;51.462;6.696;2022-09-21T11:22:05;5.20;;;2.20;;
7316;SDS011;3699;51.462;6.696;2022-09-21T11:24:37;6.50;;;2.03;;
7316;SDS011;3699;51.462;6.696;2022-09-21T11:27:12;4.83;;;1.73;;
7316;SDS011;3699;51.462;6.696;2022-09-21T11:29:46;4.30;;;2.40;;
7316;SDS011;3699;51.462;6.696;2022-09-21T11:32:24;5.43;;;2.30;;
7316;SDS011;3699;51.462;6.696;2022-09-21T11:35:24;6.07;;;1.87;;
7316;SDS011;3699;51.462;6.696;2022-09-21T11:38:07;5.87;;;3.03;;
7316;SDS011;3699;51.462;6.696;2022-09-21T11:40:41;4.23;;;2.10;;
7316;SDS011;3699;51.462;6.696;2022-09-21T11:46:23;3.23;;;2.00;;
7316;SDS011;3699;51.462;6.696;2022-09-21T11:49:01;5.17;;;2.37;;
7316;SDS011;3699;51.462;6.696;2022-09-21T11:51:43;3.37;;;2.03;;
7316;SDS011;3699;51.462;6.696;2022-09-21T11:54:27;5.13;;;1.93;;
7316;SDS011;3699;51.462;6.696;2022-09-21T11:57:17;4.53;;;2.67;;
7316;SDS011;3699;51.462;6.696;2022-09-21T11:59:53;7.60;;;2.60;;
7316;SDS011;3699;51.462;6.696;2022-09-21T12:02:37;4.83;;;2.73;;
7316;SDS011;3699;51.462;6.696;2022-09-21T12:05:28;4.73;;;2.40;;
7316;SDS011;3699;51.462;6.696;2022-09-21T12:08:03;12.00;;;5.60;;
7316;SDS011;3699;51.462;6.696;2022-09-21T12:10:52;7.50;;;3.53;;
7316;SDS011;3699;51.462;6.696;2022-09-21T12:13:28;11.20;;;4.80;;
7316;SDS011;3699;51.462;6.696;2022-09-21T12:16:04;10.97;;;3.77;;
7316;SDS011;3699;51.462;6.696;2022-09-21T12:18:38;8.63;;;3.90;;
7316;SDS011;3699;51.462;6.696;2022-09-21T12:21:12;11.00;;;4.10;;
7316;SDS011;3699;51.462;6.696;2022-09-21T12:23:45;8.67;;;4.17;;
7316;SDS011;3699;51.462;6.696;2022-09-21T12:26:17;8.90;;;3.53;;
7316;SDS011;3699;51.462;6.696;2022-09-21T12:28:48;8.67;;;3.10;;
7316;SDS011;3699;51.462;6.696;2022-09-21T12:31:20;7.13;;;4.23;;
7316;SDS011;3699;51.462;6.696;2022-09-21T12:33:50;6.60;;;3.60;;
7316;SDS011;3699;51.462;6.696;2022-09-21T12:36:23;6.00;;;3.20;;
7316;SDS011;3699;51.462;6.696;2022-09-21T12:38:56;6.37;;;3.00;;
7316;SDS011;3699;51.462;6.696;2022-09-21T12:41:29;11.97;;;4.03;;
7316;SDS011;3699;51.462;6.696;2022-09-21T12:44:03;7.13;;;3.37;;
7316;SDS011;3699;51.462;6.696;2022-09-21T12:46:42;11.37;;;3.57;;
7316;SDS011;3699;51.462;6.696;2022-09-21T12:49:14;7.30;;;3.30;;
7316;SDS011;3699;51.462;6.696;2022-09-21T12:51:47;5.07;;;2.80;;
7316;SDS011;3699;51.462;6.696;2022-09-21T12:54:20;5.97;;;2.90;;
7316;SDS011;3699;51.462;6.696;2022-09-21T12:57:02;6.27;;;3.07;;
7316;SDS011;3699;51.462;6.696;2022-09-21T12:59:36;9.70;;;3.23;;
7316;SDS011;3699;51.462;6.696;2022-09-21T13:02:14;8.93;;;3.37;;
7316;SDS011;3699;51.462;6.696;2022-09-21T13:04:49;8.87;;;3.30;;
7316;SDS011;3699;51.462;6.696;2022-09-21T13:10:31;6.73;;;3.03;;
7316;SDS011;3699;51.462;6.696;2022-09-21T13:13:07;5.20;;;3.00;;
7316;SDS011;3699;51.462;6.696;2022-09-21T13:15:43;8.67;;;3.47;;
7316;SDS011;3699;51.462;6.696;2022-09-21T13:18:17;6.77;;;3.00;;
7316;SDS011;3699;51.462;6.696;2022-09-21T13:20:49;5.90;;;3.03;;
7316;SDS011;3699;51.462;6.696;2022-09-21T13:23:19;8.53;;;3.27;;
7316;SDS011;3699;51.462;6.696;2022-09-21T13:25:57;3.63;;;2.30;;
7316;SDS011;3699;51.462;6.696;2022-09-21T13:31:31;5.93;;;3.07;;
7316;SDS011;3699;51.462;6.696;2022-09-21T13:34:22;8.17;;;3.20;;
7316;SDS011;3699;51.462;6.696;2022-09-21T13:39:41;6.83;;;2.90;;
7316;SDS011;3699;51.462;6.696;2022-09-21T13:48:11;6.27;;;3.37;;
7316;SDS011;3699;51.462;6.696;2022-09-21T13:50:45;8.23;;;3.40;;
7316;SDS011;3699;51.462;6.696;2022-09-21T13:53:16;9.13;;;3.70;;
7316;SDS011;3699;51.462;6.696;2022-09-21T13:55:47;11.07;;;3.83;;
7316;SDS011;3699;51.462;6.696;2022-09-21T13:58:18;4.83;;;3.10;;
7316;SDS011;3699;51.462;6.696;2022-09-21T14:00:49;7.50;;;3.70;;
7316;SDS011;3699;51.462;6.696;2022-09-21T14:03:21;4.97;;;2.80;;
7316;SDS011;3699;51.462;6.696;2022-09-21T14:05:51;9.23;;;2.50;;
7316;SDS011;3699;51.462;6.696;2022-09-21T14:08:21;3.43;;;2.53;;
7316;SDS011;3699;51.462;6.696;2022-09-21T14:10:52;7.00;;;2.77;;
7316;SDS011;3699;51.462;6.696;2022-09-21T14:13:23;6.83;;;2.93;;
7316;SDS011;3699;51.462;6.696;2022-09-21T14:15:53;7.80;;;2.73;;
7316;SDS011;3699;51.462;6.696;2022-09-21T14:21:13;5.57;;;2.03;;
7316;SDS011;3699;51.462;6.696;2022-09-21T14:26:35;4.20;;;2.37;;
7316;SDS011;3699;51.462;6.696;2022-09-21T14:29:15;5.30;;;2.53;;
7316;SDS011;3699;51.462;6.696;2022-09-21T14:31:46;4.27;;;2.30;;
7316;SDS011;3699;51.462;6.696;2022-09-21T14:34:14;6.43;;;2.27;;
7316;SDS011;3699;51.462;6.696;2022-09-21T14:36:49;4.30;;;1.90;;
7316;SDS011;3699;51.462;6.696;2022-09-21T14:39:20;5.30;;;2.33;;
7316;SDS011;3699;51.462;6.696;2022-09-21T14:41:50;3.77;;;1.77;;
7316;SDS011;3699;51.462;6.696;2022-09-21T14:44:21;5.73;;;2.10;;
7316;SDS011;3699;51.462;6.696;2022-09-21T14:47:00;6.47;;;2.10;;
7316;SDS011;3699;51.462;6.696;2022-09-21T14:49:49;4.37;;;2.63;;
7316;SDS011;3699;51.462;6.696;2022-09-21T14:52:28;7.87;;;1.90;;
7316;SDS011;3699;51.462;6.696;2022-09-21T14:55:12;6.47;;;1.90;;
7316;SDS011;3699;51.462;6.696;2022-09-21T14:57:46;12.43;;;2.70;;
7316;SDS011;3699;51.462;6.696;2022-09-21T15:00:23;3.77;;;2.43;;
7316;SDS011;3699;51.462;6.696;2022-09-21T15:03:07;15.43;;;2.60;;
7316;SDS011;3699;51.462;6.696;2022-09-21T15:05:51;4.77;;;2.30;;
7316;SDS011;3699;51.462;6.696;2022-09-21T15:08:27;2.63;;;1.67;;
7316;SDS011;3699;51.462;6.696;2022-09-21T15:11:27;10.70;;;2.13;;
7316;SDS011;3699;51.462;6.696;2022-09-21T15:14:14;8.30;;;1.80;;
7316;SDS011;3699;51.462;6.696;2022-09-21T15:16:46;6.07;;;2.07;;
7316;SDS011;3699;51.462;6.696;2022-09-21T15:19:20;5.77;;;2.80;;
7316;SDS011;3699;51.462;6.696;2022-09-21T15:21:48;5.20;;;1.70;;
7316;SDS011;3699;51.462;6.696;2022-09-21T15:24:19;5.73;;;2.07;;
7316;SDS011;3699;51.462;6.696;2022-09-21T15:26:48;7.83;;;1.83;;
7316;SDS011;3699;51.462;6.696;2022-09-21T15:29:19;7.57;;;2.30;;
7316;SDS011;3699;51.462;6.696;2022-09-21T15:31:50;5.90;;;2.17;;
7316;SDS011;3699;51.462;6.696;2022-09-21T15:34:17;19.53;;;3.00;;
7316;SDS011;3699;51.462;6.696;2022-09-21T15:36:44;13.87;;;3.53;;
7316;SDS011;3699;51.462;6.696;2022-09-21T15:39:24;15.30;;;2.83;;
7316;SDS011;3699;51.462;6.696;2022-09-21T15:42:04;3.23;;;1.90;;
7316;SDS011;3699;51.462;6.696;2022-09-21T15:44:44;2.30;;;2.00;;
7316;SDS011;3699;51.462;6.696;2022-09-21T15:47:13;20.00;;;3.03;;
7316;SDS011;3699;51.462;6.696;2022-09-21T15:49:43;15.90;;;3.03;;
7316;SDS011;3699;51.462;6.696;2022-09-21T15:52:10;12.70;;;2.90;;
7316;SDS011;3699;51.462;6.696;2022-09-21T15:54:45;9.33;;;2.37;;
7316;SDS011;3699;51.462;6.696;2022-09-21T15:57:22;2.63;;;1.73;;
7316;SDS011;3699;51.462;6.696;2022-09-21T15:59:55;5.27;;;2.40;;
7316;SDS011;3699;51.462;6.696;2022-09-21T16:02:22;2.63;;;1.93;;
7316;SDS011;3699;51.462;6.696;2022-09-21T16:04:51;3.03;;;1.80;;
7316;SDS011;3699;51.462;6.696;2022-09-21T16:07:24;4.27;;;2.07;;